Airfield :
LOGIN :

Register | Disclaimer

   EN    FR    IT 

 










Legend :    VFR   Marginal VFR   IFR   Intensive IFR   Very Intensive IFR
Visi :
Ceiling :
>= 8 km
>= 3000ft
5 to 8 km
1000 to 3000 ft
1500m to 5 km
500 to 1000 ft
800 to 1500m
200 to 500 ft
< 800m
< 200 ft
Symbols :   Thunderstorms  Fog  Heavy snow  Heavy precipitations  Wind > 20 kt
SIGMETs :     Misc.  Thunderstorms  Icing  Turbulence  Mountain Waves  Volcanic Ashes







- Airport Elevation : 203 ft
- IATA code : XMJ
- Download approach charts


LFBM - Mont-De-Marsan

CURRENT METAR :
  • 220400Z AUTO 00000KT 9999 1600 NSC 11/11 Q1021 NOSIG

EXPIRED METARs :
  • 220330Z AUTO 07001KT CAVOK 11/11 Q1021 NOSIG
  • 220300Z AUTO 00000KT 8000 NSC 12/12 Q1021 NOSIG
  • 220230Z AUTO 25001KT 8000 NSC 13/12 Q1021 NOSIG
  • 220200Z AUTO VRB01KT 8000 3100 VV/// 13/13 Q1021 BECMG OVC005
  • 220130Z AUTO 28002KT 6000 NSC 13/12 Q1021 BECMG OVC005

TAF TAF LFBM
Valid from the 22 at 03:00 until the 23 at 03:00 UTC


220200Z 2203/2303 VRB02KT CAVOK
TEMPO 2206/2211 4000 -DZRA BKN005
BECMG 2212/2215 BKN015
PROB40
TEMPO 2300/2303 1500 MIFG
No reported NOTAMs for that airfield.



MET'MAP, your aeronautical weather chart ! - Copyright ORBIFLY December 2007 - Disclaimer

ORBIFLY MET'MAP TEAM :

Programming & Development : Alexandra Zaïnal
Concept & Development : Baudouin d'Aumeries
Co-Development & Prog : Marc-Olivier Méhu
Technical & hardware support : Manuel Goepfert

Contact : metmap@orbifly.com




SOURCES & CREDITS :

   NOAA